Time;durP1;ratioP1;P1;durP2;ratioP2;P2;SDS_P1;SDS_P2;PMS_P1;PMS_P2;Temp;Humidity;BMP_temperature;BMP_pressure;BME280_temperature;BME280_humidity;BME280_pressure;Samples;Min_cycle;Max_cycle;Signal;HPM_P1;HPM_P2
2021/06/15 00:00:38;;;;;;;;;;;;;;;25.61;44.93;101932.19;2206691;39;115996;-54
2021/06/15 00:02:10;;;;;;;;;;;;;;;25.61;45.91;101932.19;2207783;39;115570;-53
2021/06/15 00:03:42;;;;;;;;;;;;;;;25.60;44.54;101928.50;2204530;39;114081;-53
2021/06/15 00:05:14;;;;;;;;;;;;;;;25.60;44.66;101931.34;2199527;39;115118;-53
2021/06/15 00:06:46;;;;;;;;;;;;;;;25.61;45.28;101927.38;2205689;39;115474;-53
2021/06/15 00:08:18;;;;;;;;;;;;;;;25.60;46.34;101928.50;2195032;39;115665;-53
2021/06/15 00:09:49;;;;;;;;;;;;;;;25.58;45.04;101924.31;2201264;39;115775;-53
2021/06/15 00:11:21;;;;;;;;;;;;;;;25.60;44.63;101934.19;2205485;39;115572;-53
2021/06/15 00:12:54;;;;;;;;;;;;;;;25.58;45.37;101935.63;2201803;39;115466;-53
2021/06/15 00:14:25;;;;;;;;;;;;;;;25.58;45.19;101942.13;2198046;39;114637;-54
2021/06/15 00:15:57;;;;;;;;;;;;;;;25.58;44.89;101939.31;2204137;39;115132;-54
2021/06/15 00:17:29;;;;;;;;;;;;;;;25.58;44.92;101938.47;2204854;39;115940;-53
2021/06/15 00:19:00;;;;;;;;;;;;;;;25.57;45.04;101931.16;2203602;39;114658;-53
2021/06/15 00:20:32;;;;;;;;;;;;;;;25.57;44.42;101933.97;2207048;39;114866;-53
2021/06/15 00:22:07;;;;;;;;;;;;;;;25.56;44.76;101935.97;2193647;39;113716;-54
2021/06/15 00:23:39;;;;;;;;;;;;;;;25.56;44.28;101935.97;2200793;39;113750;-53
2021/06/15 00:25:12;;;;;;;;;;;;;;;25.56;44.02;101932.31;2206806;39;114442;-54
2021/06/15 00:26:44;;;;;;;;;;;;;;;25.57;45.39;101937.66;2205760;39;113697;-54
2021/06/15 00:28:15;;;;;;;;;;;;;;;25.58;44.39;101935.63;2199951;39;113923;-53
2021/06/15 00:29:47;;;;;;;;;;;;;;;25.57;44.91;101933.97;2202279;39;115097;-54
2021/06/15 00:31:23;;;;;;;;;;;;;;;25.58;45.09;101941.28;2205748;39;113837;-54
2021/06/15 00:32:55;;;;;;;;;;;;;;;25.62;45.39;101939.53;2205622;39;114245;-53
2021/06/15 00:34:28;;;;;;;;;;;;;;;25.57;45.13;101937.66;2204353;39;113944;-53
2021/06/15 00:36:00;;;;;;;;;;;;;;;25.59;44.93;101942.97;2194513;39;113968;-54
2021/06/15 00:37:31;;;;;;;;;;;;;;;25.55;45.17;101933.44;2201695;39;113889;-53
2021/06/15 00:39:03;;;;;;;;;;;;;;;25.56;45.19;101930.31;2199911;39;114086;-53
2021/06/15 00:40:35;;;;;;;;;;;;;;;25.57;45.90;101932.00;2201811;39;114096;-53
2021/06/15 00:42:07;;;;;;;;;;;;;;;25.58;45.13;101933.63;2206785;39;113887;-53
2021/06/15 00:43:39;;;;;;;;;;;;;;;25.57;45.07;101926.34;2205571;39;113880;-54
2021/06/15 00:45:13;;;;;;;;;;;;;;;25.57;45.63;101929.16;2202623;39;115263;-53
2021/06/15 00:46:45;;;;;;;;;;;;;;;25.52;44.56;101932.06;2199188;39;114107;-54
2021/06/15 00:48:22;;;;;;;;;;;;;;;25.55;44.80;101927.78;2203914;39;114322;-54
2021/06/15 00:49:54;;;;;;;;;;;;;;;25.53;44.88;101927.25;2203257;39;113970;-53
2021/06/15 00:51:26;;;;;;;;;;;;;;;25.53;45.38;101918.75;2204301;39;114082;-54
2021/06/15 00:52:57;;;;;;;;;;;;;;;25.54;44.57;101920.44;2204658;39;114196;-53
2021/06/15 00:54:29;;;;;;;;;;;;;;;25.53;45.47;101930.91;2205157;39;114894;-53
2021/06/15 00:56:01;;;;;;;;;;;;;;;25.55;44.88;101924.97;2204199;39;113871;-54
2021/06/15 00:57:32;;;;;;;;;;;;;;;25.56;44.87;101918.16;2205484;39;114861;-53
2021/06/15 00:59:04;;;;;;;;;;;;;;;25.53;44.92;101930.91;2200484;39;115181;-53
2021/06/15 01:00:36;;;;;;;;;;;;;;;25.52;44.94;101929.25;2196822;39;114416;-53
2021/06/15 01:02:08;;;;;;;;;;;;;;;25.51;44.82;101921.91;2204100;39;114490;-53
2021/06/15 01:03:40;;;;;;;;;;;;;;;25.52;45.48;101925.56;2202299;39;115203;-53
2021/06/15 01:05:15;;;;;;;;;;;;;;;25.54;45.35;101932.59;2205529;39;114892;-53
2021/06/15 01:06:47;;;;;;;;;;;;;;;25.51;44.80;101935.22;2203853;39;115967;-53
2021/06/15 01:08:30;;;;;;;;;;;;;;;25.51;44.48;101927.56;2204708;39;115611;-53
2021/06/15 01:10:06;;;;;;;;;;;;;;;25.52;44.46;101936.91;2202267;39;114832;-54
2021/06/15 01:11:50;;;;;;;;;;;;;;;25.51;44.48;101940.88;2201751;39;114645;-55
2021/06/15 01:13:32;;;;;;;;;;;;;;;25.52;45.21;101937.75;2201051;39;114638;-53
2021/06/15 01:15:13;;;;;;;;;;;;;;;25.52;43.80;101942.56;2194063;39;116120;-53
2021/06/15 01:16:51;;;;;;;;;;;;;;;25.50;44.16;101939.19;2194284;39;302173;-52
2021/06/15 01:18:24;;;;;;;;;;;;;;;25.50;44.02;101934.38;2201477;39;115606;-62
2021/06/15 01:20:05;;;;;;;;;;;;;;;25.47;43.99;101937.84;2203935;39;115624;-53
2021/06/15 01:21:38;;;;;;;;;;;;;;;25.49;43.91;101937.50;2203709;39;115481;-53
2021/06/15 01:23:19;;;;;;;;;;;;;;;25.52;43.61;101928.41;2201269;39;115764;-54
2021/06/15 01:24:53;;;;;;;;;;;;;;;25.49;44.16;101929.03;2201651;39;116103;-53
2021/06/15 01:26:25;;;;;;;;;;;;;;;25.47;43.63;101937.84;2205187;39;115822;-54
2021/06/15 01:28:01;;;;;;;;;;;;;;;25.48;43.27;101927.38;2204929;39;115500;-53
2021/06/15 01:29:35;;;;;;;;;;;;;;;25.48;43.64;101928.22;2196722;39;113683;-53
2021/06/15 01:31:07;;;;;;;;;;;;;;;25.48;43.57;101927.38;2195838;39;114097;-54
2021/06/15 01:32:42;;;;;;;;;;;;;;;25.46;44.50;101921.19;2202543;39;115819;-54
2021/06/15 01:34:15;;;;;;;;;;;;;;;25.46;44.08;101919.19;2205112;39;113940;-53
2021/06/15 01:35:49;;;;;;;;;;;;;;;25.46;44.32;101919.19;2198133;39;113924;-53
2021/06/15 01:37:21;;;;;;;;;;;;;;;25.46;44.67;101918.34;2199048;39;114001;-53
2021/06/15 01:38:53;;;;;;;;;;;;;;;25.45;44.22;101928.00;2202624;39;114546;-53
2021/06/15 01:40:32;;;;;;;;;;;;;;;25.46;44.74;101926.84;2199147;39;113710;-53
2021/06/15 01:42:09;;;;;;;;;;;;;;;25.43;44.28;101924.66;2203274;39;114060;-53
2021/06/15 01:43:43;;;;;;;;;;;;;;;25.43;43.89;101927.50;2197329;39;113942;-54
2021/06/15 01:45:18;;;;;;;;;;;;;;;25.44;43.72;101932.00;2201024;39;113849;-53
2021/06/15 01:46:50;;;;;;;;;;;;;;;25.43;43.26;101928.31;2196927;39;116547;-53
2021/06/15 01:48:31;;;;;;;;;;;;;;;25.42;42.61;101934.28;2203176;39;113796;-53
2021/06/15 01:50:06;;;;;;;;;;;;;;;25.41;42.61;101932.63;2205482;39;113709;-53
2021/06/15 01:51:39;;;;;;;;;;;;;;;25.41;43.13;101939.13;2202017;39;114791;-53
2021/06/15 01:53:19;;;;;;;;;;;;;;;25.43;43.25;101933.16;2206277;39;114614;-53
2021/06/15 01:54:51;;;;;;;;;;;;;;;25.43;43.16;101941.63;2199802;39;114751;-53
2021/06/15 01:56:24;;;;;;;;;;;;;;;25.40;43.12;101943.09;2210015;39;113862;-54
2021/06/15 01:57:56;;;;;;;;;;;;;;;25.38;43.31;101944.56;2195884;39;115084;-54
2021/06/15 01:59:29;;;;;;;;;;;;;;;25.39;43.11;101949.94;2203062;39;115622;-53
2021/06/15 02:01:02;;;;;;;;;;;;;;;25.40;43.06;101954.41;2205210;39;114810;-53
2021/06/15 02:02:34;;;;;;;;;;;;;;;25.40;43.24;101950.75;2203733;39;114946;-53
2021/06/15 02:04:06;;;;;;;;;;;;;;;25.40;43.03;101959.22;2201775;39;114822;-53
2021/06/15 02:05:40;;;;;;;;;;;;;;;25.40;43.54;101953.56;2203584;39;114953;-53
2021/06/15 02:07:14;;;;;;;;;;;;;;;25.38;43.62;101953.91;2196415;39;114880;-53
2021/06/15 02:08:48;;;;;;;;;;;;;;;25.37;42.56;101957.88;2203552;39;114818;-54
2021/06/15 02:10:21;;;;;;;;;;;;;;;25.37;43.17;101948.56;2207795;39;115502;-53
2021/06/15 02:11:52;;;;;;;;;;;;;;;25.37;43.34;101949.41;2200014;39;115714;-53
2021/06/15 02:13:26;;;;;;;;;;;;;;;25.38;43.95;101947.41;2204130;39;114523;-54
2021/06/15 02:14:58;;;;;;;;;;;;;;;25.37;43.41;101951.38;2201310;39;114749;-53
2021/06/15 02:16:31;;;;;;;;;;;;;;;25.36;43.25;101946.88;2197517;39;115491;-53
2021/06/15 02:18:04;;;;;;;;;;;;;;;25.36;43.42;101952.53;2202446;39;115093;-53
2021/06/15 02:19:38;;;;;;;;;;;;;;;25.35;43.35;101953.72;2204653;39;115633;-53
2021/06/15 02:21:10;;;;;;;;;;;;;;;25.34;43.71;101952.88;2204888;39;115637;-53
2021/06/15 02:22:47;;;;;;;;;;;;;;;25.37;43.78;101959.88;2197080;39;115759;-53
2021/06/15 02:24:19;;;;;;;;;;;;;;;25.34;43.55;101955.69;2201803;39;115628;-54
2021/06/15 02:25:54;;;;;;;;;;;;;;;25.34;43.15;101954.84;2198472;39;114721;-53
2021/06/15 02:27:26;;;;;;;;;;;;;;;25.34;43.16;101955.69;2202984;39;115648;-53
2021/06/15 02:28:58;;;;;;;;;;;;;;;25.35;42.94;101950.88;2202212;39;115528;-53
2021/06/15 02:30:30;;;;;;;;;;;;;;;25.33;43.37;101951.19;2204049;39;116106;-53
2021/06/15 02:32:03;;;;;;;;;;;;;;;25.35;43.13;101963.00;2197626;39;115754;-54
2021/06/15 02:33:38;;;;;;;;;;;;;;;25.35;43.25;101965.03;2202757;39;115226;-54
2021/06/15 02:35:11;;;;;;;;;;;;;;;25.32;42.56;101965.63;2207048;39;114685;-54
2021/06/15 02:36:44;;;;;;;;;;;;;;;25.34;42.99;101958.53;2204165;39;113830;-54
2021/06/15 02:38:19;;;;;;;;;;;;;;;25.33;42.89;101959.69;2208992;39;113845;-54
2021/06/15 02:39:53;;;;;;;;;;;;;;;25.34;42.53;101954.84;2205059;39;114011;-53
2021/06/15 02:41:26;;;;;;;;;;;;;;;25.33;43.25;101950.34;2204448;39;113809;-53
2021/06/15 02:42:59;;;;;;;;;;;;;;;25.32;42.51;101943.00;2204831;39;113914;-54
2021/06/15 02:44:32;;;;;;;;;;;;;;;25.29;43.87;101954.97;2197926;39;113658;-53
2021/06/15 02:46:05;;;;;;;;;;;;;;;25.32;42.69;101951.50;2200356;39;114132;-53
2021/06/15 02:47:39;;;;;;;;;;;;;;;25.31;43.00;101955.47;2195979;39;114051;-53
2021/06/15 02:49:14;;;;;;;;;;;;;;;25.30;42.64;101951.00;2202136;39;113926;-53
2021/06/15 02:50:46;;;;;;;;;;;;;;;25.31;42.33;101946.97;2204603;39;113828;-54
2021/06/15 02:52:24;;;;;;;;;;;;;;;25.31;42.63;101949.81;2204558;39;113881;-54
2021/06/15 02:54:04;;;;;;;;;;;;;;;25.30;42.53;101949.00;2197817;39;113877;-53
2021/06/15 02:55:37;;;;;;;;;;;;;;;25.29;42.84;101944.50;2203718;39;113539;-54
2021/06/15 02:57:15;;;;;;;;;;;;;;;25.28;43.48;101944.78;2194635;39;113972;-53
2021/06/15 02:58:47;;;;;;;;;;;;;;;25.28;43.17;101939.13;2197446;39;115202;-53
2021/06/15 03:00:19;;;;;;;;;;;;;;;25.28;42.64;101922.16;2207632;39;115112;-53
2021/06/15 03:01:51;;;;;;;;;;;;;;;25.28;42.83;101934.31;2198254;39;115253;-53
2021/06/15 03:03:23;;;;;;;;;;;;;;;25.28;42.48;101939.13;2195953;39;113886;-53
2021/06/15 03:04:54;;;;;;;;;;;;;;;25.27;43.41;101938.31;2200934;39;114422;-54
2021/06/15 03:06:26;;;;;;;;;;;;;;;25.27;42.97;101946.78;2198634;39;113949;-54
2021/06/15 03:07:58;;;;;;;;;;;;;;;25.28;42.25;101942.81;2202520;39;115278;-53
2021/06/15 03:09:30;;;;;;;;;;;;;;;25.26;42.97;101947.94;2200147;39;115362;-53
2021/06/15 03:11:03;;;;;;;;;;;;;;;25.26;42.58;101945.09;2202941;39;114850;-54
2021/06/15 03:12:40;;;;;;;;;;;;;;;25.28;42.62;101939.13;2205173;39;114821;-53
2021/06/15 03:14:22;;;;;;;;;;;;;;;25.27;42.36;101945.94;2204693;39;114918;-53
2021/06/15 03:15:53;;;;;;;;;;;;;;;25.25;43.05;101940.63;2203233;39;114395;-53
2021/06/15 03:17:27;;;;;;;;;;;;;;;25.23;42.58;101942.91;2193608;39;115208;-53
2021/06/15 03:19:05;;;;;;;;;;;;;;;25.24;42.63;101945.44;2198761;39;114868;-53
2021/06/15 03:20:38;;;;;;;;;;;;;;;25.24;42.98;101945.44;2198127;39;116376;-54
2021/06/15 03:22:15;;;;;;;;;;;;;;;25.23;42.80;101940.09;2194006;39;116004;-53
2021/06/15 03:23:51;;;;;;;;;;;;;;;25.23;42.83;101940.94;2194792;39;114699;-54
2021/06/15 03:25:25;;;;;;;;;;;;;;;25.22;42.72;101944.06;2185153;39;119127;-54
2021/06/15 03:27:06;;;;;;;;;;;;;;;25.24;42.64;101938.94;2192997;39;115598;-53
2021/06/15 03:28:40;;;;;;;;;;;;;;;25.24;43.50;101945.44;2198459;39;115631;-53
2021/06/15 03:30:13;;;;;;;;;;;;;;;25.22;42.73;101949.72;2197532;39;115470;-54
2021/06/15 03:31:47;;;;;;;;;;;;;;;25.21;42.87;101953.72;2186791;39;115507;-53
2021/06/15 03:33:20;;;;;;;;;;;;;;;25.22;42.86;101946.91;2196423;39;114664;-53
2021/06/15 03:34:52;;;;;;;;;;;;;;;25.21;42.66;101946.06;2191660;39;115591;-53
2021/06/15 03:36:25;;;;;;;;;;;;;;;25.19;42.53;101945.56;2198307;39;115693;-55
2021/06/15 03:37:59;;;;;;;;;;;;;;;25.20;42.27;101943.56;2188369;39;115545;-54
2021/06/15 03:39:32;;;;;;;;;;;;;;;25.20;42.42;101943.56;2192486;39;115519;-54
2021/06/15 03:41:04;;;;;;;;;;;;;;;25.20;41.98;101940.72;2193485;39;115487;-53
2021/06/15 03:42:39;;;;;;;;;;;;;;;25.19;42.03;101939.06;2191429;39;113798;-53
2021/06/15 03:44:12;;;;;;;;;;;;;;;25.18;42.39;101935.38;2191263;39;113691;-53
2021/06/15 03:45:49;;;;;;;;;;;;;;;25.19;42.42;101936.22;2195204;39;114280;-54
2021/06/15 03:47:23;;;;;;;;;;;;;;;25.17;42.41;101938.50;2196268;39;113840;-54
2021/06/15 03:48:56;;;;;;;;;;;;;;;25.18;42.12;101935.38;2196554;39;114143;-53
2021/06/15 03:50:29;;;;;;;;;;;;;;;25.17;41.82;101933.69;2197822;39;113833;-53
2021/06/15 03:52:03;;;;;;;;;;;;;;;25.16;42.22;101926.41;2196562;39;113763;-53
2021/06/15 03:53:35;;;;;;;;;;;;;;;25.16;42.33;101931.22;2198274;39;113579;-53
2021/06/15 03:55:09;;;;;;;;;;;;;;;25.15;41.65;101932.34;2199721;39;113630;-53
2021/06/15 03:56:42;;;;;;;;;;;;;;;25.16;41.71;101932.06;2197653;39;113882;-53
2021/06/15 03:58:14;;;;;;;;;;;;;;;25.15;41.88;101935.19;2191922;39;114117;-53
2021/06/15 03:59:48;;;;;;;;;;;;;;;25.12;41.95;101933.00;2194128;39;114803;-53
2021/06/15 04:01:20;;;;;;;;;;;;;;;25.14;41.73;101945.66;2198263;39;113942;-53
2021/06/15 04:02:54;;;;;;;;;;;;;;;25.11;41.83;101949.13;2197598;39;113820;-54
2021/06/15 04:04:29;;;;;;;;;;;;;;;25.10;42.36;101944.63;2192783;39;113629;-53
2021/06/15 04:06:02;;;;;;;;;;;;;;;25.12;41.82;101950.78;2194230;39;115533;-54
2021/06/15 04:07:33;;;;;;;;;;;;;;;25.11;41.94;101945.47;2196990;39;115127;-54
2021/06/15 04:09:06;;;;;;;;;;;;;;;25.10;41.93;101944.63;2198551;39;114036;-53
2021/06/15 04:10:39;;;;;;;;;;;;;;;25.09;41.66;101950.56;2191389;39;114936;-53
2021/06/15 04:12:12;;;;;;;;;;;;;;;25.10;42.02;101949.44;2189513;39;115362;-53
2021/06/15 04:13:44;;;;;;;;;;;;;;;25.09;41.89;101942.09;2191716;39;115385;-54
2021/06/15 04:15:16;;;;;;;;;;;;;;;25.11;42.36;101951.13;2197297;39;115040;-54
2021/06/15 04:16:49;;;;;;;;;;;;;;;25.10;42.18;101953.09;2188165;39;114873;-53
2021/06/15 04:18:22;;;;;;;;;;;;;;;25.09;41.84;101948.59;2202432;39;114021;-53
2021/06/15 04:19:55;;;;;;;;;;;;;;;25.11;41.89;101953.94;2196367;39;113941;-55
2021/06/15 04:21:31;;;;;;;;;;;;;;;25.09;41.89;101953.41;2203380;39;113958;-54
2021/06/15 04:23:06;;;;;;;;;;;;;;;25.10;42.03;101958.75;2204632;39;113948;-53
2021/06/15 04:24:39;;;;;;;;;;;;;;;25.09;41.30;101964.72;2196306;39;115214;-53
2021/06/15 04:26:11;;;;;;;;;;;;;;;25.09;41.40;101968.38;2202592;39;115052;-53
2021/06/15 04:27:46;;;;;;;;;;;;;;;25.06;42.00;101954.88;2195090;39;115661;-53
2021/06/15 04:29:18;;;;;;;;;;;;;;;25.05;41.36;101953.19;2199320;39;115300;-53
2021/06/15 04:30:50;;;;;;;;;;;;;;;25.05;41.84;101961.69;2201403;39;115159;-53
2021/06/15 04:32:24;;;;;;;;;;;;;;;25.05;41.85;101967.34;2195633;39;116021;-53
2021/06/15 04:33:56;;;;;;;;;;;;;;;25.04;41.87;101960.00;2200413;39;115725;-54
2021/06/15 04:35:32;;;;;;;;;;;;;;;25.03;41.27;101963.97;2202604;39;115927;-53
2021/06/15 04:37:05;;;;;;;;;;;;;;;25.04;41.33;101967.66;2204339;39;114731;-54
2021/06/15 04:38:42;;;;;;;;;;;;;;;25.04;41.37;101959.16;2197723;39;116386;-53
2021/06/15 04:40:14;;;;;;;;;;;;;;;25.03;41.27;101969.63;2201460;39;114613;-53
2021/06/15 04:41:56;;;;;;;;;;;;;;;25.02;41.57;101975.63;2202346;39;115550;-53
2021/06/15 04:43:28;;;;;;;;;;;;;;;25.02;41.80;101981.28;2202294;39;115834;-53
2021/06/15 04:45:00;;;;;;;;;;;;;;;25.01;41.28;101974.78;2193032;39;115641;-55
2021/06/15 04:46:32;;;;;;;;;;;;;;;25.02;41.42;101978.47;2204916;39;115924;-53
2021/06/15 04:48:07;;;;;;;;;;;;;;;25.02;41.43;101978.47;2205060;39;116206;-53
2021/06/15 04:49:44;;;;;;;;;;;;;;;25.01;41.18;101979.59;2202611;39;114092;-55
2021/06/15 04:51:19;;;;;;;;;;;;;;;24.99;41.31;101982.72;2195207;39;113622;-54
2021/06/15 04:52:50;;;;;;;;;;;;;;;24.99;41.82;101987.53;2201421;39;114065;-53
2021/06/15 04:54:27;;;;;;;;;;;;;;;24.99;41.60;101982.72;2201394;39;113785;-53
2021/06/15 04:56:00;;;;;;;;;;;;;;;24.98;41.32;101992.38;2193426;39;113765;-53
2021/06/15 04:57:36;;;;;;;;;;;;;;;24.98;41.54;101988.72;2198552;39;114114;-53
2021/06/15 04:59:09;;;;;;;;;;;;;;;24.98;41.36;101992.38;2202726;39;113856;-53
2021/06/15 05:00:40;;;;;;;;;;;;;;;24.97;41.24;101990.72;2194721;39;114260;-53
2021/06/15 05:02:13;;;;;;;;;;;;;;;24.98;41.26;101992.38;2203090;39;114164;-54
2021/06/15 05:03:45;;;;;;;;;;;;;;;24.97;41.14;101987.88;2199041;39;116525;-53
2021/06/15 05:05:17;;;;;;;;;;;;;;;24.97;41.60;101993.53;2196948;39;113763;-54
2021/06/15 05:06:49;;;;;;;;;;;;;;;24.98;41.72;101994.38;2200154;39;114149;-54
2021/06/15 05:08:22;;;;;;;;;;;;;;;24.97;41.51;101993.53;2196888;39;114190;-54
2021/06/15 05:09:56;;;;;;;;;;;;;;;24.96;41.24;102002.31;2191330;39;114721;-53
2021/06/15 05:11:33;;;;;;;;;;;;;;;24.98;41.85;101998.03;2199788;39;114773;-53
2021/06/15 05:13:08;;;;;;;;;;;;;;;24.96;41.81;102006.00;2202641;39;115015;-53
2021/06/15 05:14:41;;;;;;;;;;;;;;;24.95;41.26;102004.31;2197872;39;114131;-54
2021/06/15 05:16:13;;;;;;;;;;;;;;;24.96;41.66;101994.69;2202976;39;115072;-53
2021/06/15 05:17:46;;;;;;;;;;;;;;;24.96;41.65;102000.34;2198429;39;115304;-53
2021/06/15 05:19:18;;;;;;;;;;;;;;;24.94;41.29;102004.63;2183946;39;114963;-53
2021/06/15 05:20:50;;;;;;;;;;;;;;;24.95;41.25;102009.97;2201894;39;114885;-53
2021/06/15 05:22:25;;;;;;;;;;;;;;;24.95;41.52;102003.47;2205378;39;115942;-53
2021/06/15 05:23:57;;;;;;;;;;;;;;;24.96;41.53;102011.66;2205230;39;115595;-53
2021/06/15 05:25:28;;;;;;;;;;;;;;;24.94;41.97;102013.13;2202918;39;115802;-58
2021/06/15 05:27:00;;;;;;;;;;;;;;;24.94;41.36;102004.63;2191880;39;115149;-53
2021/06/15 05:28:31;;;;;;;;;;;;;;;24.96;41.61;102013.63;2199259;39;114872;-53
2021/06/15 05:30:04;;;;;;;;;;;;;;;24.94;41.81;102013.13;2203267;39;114440;-53
2021/06/15 05:31:46;;;;;;;;;;;;;;;24.94;41.92;102021.59;2200794;39;114968;-53
2021/06/15 05:33:17;;;;;;;;;;;;;;;24.95;41.67;102026.09;2203256;39;115386;-53
2021/06/15 05:34:49;;;;;;;;;;;;;;;24.94;41.77;102028.06;2192037;39;114543;-53
2021/06/15 05:36:21;;;;;;;;;;;;;;;24.95;41.81;102032.59;2192328;39;115829;-53
2021/06/15 05:37:52;;;;;;;;;;;;;;;24.93;41.99;102032.06;2202748;39;115742;-53
2021/06/15 05:39:25;;;;;;;;;;;;;;;24.93;41.78;102032.06;2198460;39;115922;-53
2021/06/15 05:40:58;;;;;;;;;;;;;;;24.93;42.28;102031.22;2201986;39;115552;-53
2021/06/15 05:42:29;;;;;;;;;;;;;;;24.95;41.69;102028.91;2192191;39;115760;-53
2021/06/15 05:44:01;;;;;;;;;;;;;;;24.94;41.68;102030.91;2197994;39;115922;-53
2021/06/15 05:45:32;;;;;;;;;;;;;;;24.96;41.39;102036.25;2197114;39;115439;-53
2021/06/15 05:47:05;;;;;;;;;;;;;;;24.94;41.33;102030.09;2202144;39;115579;-53
2021/06/15 05:48:36;;;;;;;;;;;;;;;24.94;41.60;102039.38;2205093;39;115629;-53
2021/06/15 05:50:08;;;;;;;;;;;;;;;24.93;41.65;102043.38;2203750;39;115771;-54
2021/06/15 05:51:40;;;;;;;;;;;;;;;24.93;41.69;102034.91;2205120;39;116641;-53
2021/06/15 05:53:12;;;;;;;;;;;;;;;24.93;42.01;102034.91;2204668;39;115693;-54
2021/06/15 05:54:43;;;;;;;;;;;;;;;24.92;41.86;102038.88;2206557;39;114553;-54
2021/06/15 05:56:15;;;;;;;;;;;;;;;24.93;41.40;102037.72;2194793;39;113881;-53
2021/06/15 05:57:47;;;;;;;;;;;;;;;24.92;41.34;102038.88;2201664;39;114084;-53
2021/06/15 05:59:18;;;;;;;;;;;;;;;24.89;41.43;102039.50;2205929;39;113807;-54
2021/06/15 06:00:50;;;;;;;;;;;;;;;24.88;41.24;102035.00;2207675;39;114009;-54
2021/06/15 06:02:21;;;;;;;;;;;;;;;24.91;41.17;102027.88;2195265;39;114734;-53
2021/06/15 06:04:03;;;;;;;;;;;;;;;24.89;41.13;102028.19;2197589;39;114377;-59
2021/06/15 06:08:56;;;;;;;;;;;;;;;24.89;41.43;102035.84;2195868;39;114271;-55
2021/06/15 06:10:28;;;;;;;;;;;;;;;24.91;41.64;102040.00;2201556;39;113813;-53
2021/06/15 06:11:59;;;;;;;;;;;;;;;24.90;41.43;102034.66;2196017;39;114268;-53
2021/06/15 06:13:31;;;;;;;;;;;;;;;24.89;41.36;102033.84;2202624;39;113868;-53
2021/06/15 06:15:04;;;;;;;;;;;;;;;24.90;40.95;102031.84;2203749;39;113808;-53
2021/06/15 06:16:36;;;;;;;;;;;;;;;24.90;41.80;102034.66;2206084;39;113818;-53
2021/06/15 06:18:15;;;;;;;;;;;;;;;24.89;41.31;102050.81;2191421;39;114230;-54
2021/06/15 06:19:48;;;;;;;;;;;;;;;24.96;40.65;102047.56;2200968;39;115275;-53
2021/06/15 06:21:20;;;;;;;;;;;;;;;24.91;40.52;102042.84;2204927;39;114963;-52
2021/06/15 06:22:51;;;;;;;;;;;;;;;24.91;40.10;102050.47;2200056;39;114815;-53
2021/06/15 06:24:23;;;;;;;;;;;;;;;24.75;39.61;102050.75;2203502;39;115295;-53
2021/06/15 06:25:55;;;;;;;;;;;;;;;24.73;38.72;102052.19;2202489;39;115554;-54
2021/06/15 06:27:26;;;;;;;;;;;;;;;24.72;38.58;102048.53;2206755;39;114115;-53
2021/06/15 06:28:58;;;;;;;;;;;;;;;24.70;39.08;102052.81;2203972;39;114945;-53
2021/06/15 06:30:30;;;;;;;;;;;;;;;24.68;38.75;102055.94;2205159;39;115211;-52
2021/06/15 06:32:04;;;;;;;;;;;;;;;24.69;38.90;102054.81;2198181;39;114994;-54
2021/06/15 06:33:35;;;;;;;;;;;;;;;24.69;39.01;102057.63;2203465;39;113964;-53
2021/06/15 06:35:07;;;;;;;;;;;;;;;24.68;38.96;102055.13;2204079;39;113898;-53
2021/06/15 06:36:39;;;;;;;;;;;;;;;24.65;38.69;102053.75;2204675;39;115036;-53
2021/06/15 06:38:10;;;;;;;;;;;;;;;24.63;38.60;102058.03;2199812;39;114800;-53
2021/06/15 06:39:42;;;;;;;;;;;;;;;24.62;39.11;102056.38;2205011;39;114683;-53
2021/06/15 06:41:14;;;;;;;;;;;;;;;24.62;38.82;102057.19;2204828;39;115590;-53
2021/06/15 06:42:46;;;;;;;;;;;;;;;24.66;38.70;102052.63;2204723;39;115429;-53
2021/06/15 06:44:17;;;;;;;;;;;;;;;24.61;38.73;102058.34;2204286;39;115449;-53
2021/06/15 06:45:49;;;;;;;;;;;;;;;24.63;38.75;102052.38;2205382;39;115609;-53
2021/06/15 06:47:21;;;;;;;;;;;;;;;24.54;38.48;102054.22;2204651;39;115965;-53
2021/06/15 06:48:53;;;;;;;;;;;;;;;24.38;38.70;102050.84;2203368;39;114692;-54
2021/06/15 06:50:25;;;;;;;;;;;;;;;24.32;38.15;102047.25;2200695;39;114541;-53
2021/06/15 06:51:56;;;;;;;;;;;;;;;24.30;38.01;102043.88;2203001;39;115693;-53
2021/06/15 06:53:28;;;;;;;;;;;;;;;24.22;37.93;102053.06;2203670;39;115202;-54
2021/06/15 06:54:59;;;;;;;;;;;;;;;24.21;38.42;102044.91;2202961;39;115664;-54
2021/06/15 06:56:31;;;;;;;;;;;;;;;24.21;38.40;102044.91;2203765;39;114725;-53
2021/06/15 06:58:03;;;;;;;;;;;;;;;24.22;38.20;102041.75;2202779;39;116073;-54
2021/06/15 06:59:35;;;;;;;;;;;;;;;24.23;38.68;102042.59;2207029;39;114682;-54
2021/06/15 07:01:09;;;;;;;;;;;;;;;24.15;37.86;102044.13;2199211;39;113879;-53
2021/06/15 07:02:41;;;;;;;;;;;;;;;24.13;38.41;102049.22;2199116;39;115050;-53
2021/06/15 07:04:13;;;;;;;;;;;;;;;24.09;38.24;102047.31;2199183;39;113828;-53
2021/06/15 07:05:45;;;;;;;;;;;;;;;24.07;38.46;102050.47;2204963;39;114147;-53
2021/06/15 07:07:17;;;;;;;;;;;;;;;24.07;38.79;102055.28;2205294;39;113749;-53
2021/06/15 07:08:48;;;;;;;;;;;;;;;24.08;38.78;102052.13;2205792;39;115562;-53
2021/06/15 07:10:20;;;;;;;;;;;;;;;24.07;38.83;102050.47;2198567;39;113978;-54
2021/06/15 07:11:52;;;;;;;;;;;;;;;24.04;38.88;102050.22;2193108;39;113775;-53
2021/06/15 07:13:24;;;;;;;;;;;;;;;24.00;38.75;102051.97;2196619;39;114309;-53
2021/06/15 07:14:55;;;;;;;;;;;;;;;24.05;38.95;102054.72;2202613;39;114339;-53
2021/06/15 07:16:27;;;;;;;;;;;;;;;24.01;38.67;102060.16;2204519;39;113891;-53
2021/06/15 07:17:58;;;;;;;;;;;;;;;23.95;38.41;102061.34;2203713;39;114869;-53
2021/06/15 07:19:30;;;;;;;;;;;;;;;23.91;38.52;102049.84;2197356;39;113912;-53
2021/06/15 07:21:03;;;;;;;;;;;;;;;23.91;38.37;102057.47;2202167;39;113870;-53
2021/06/15 07:22:35;;;;;;;;;;;;;;;23.89;38.64;102054.13;2207415;39;113714;-57
2021/06/15 07:24:07;;;;;;;;;;;;;;;23.88;38.74;102050.47;2203755;39;115004;-53
2021/06/15 07:25:39;;;;;;;;;;;;;;;23.82;39.18;102050.81;2204745;39;115590;-53
2021/06/15 07:27:10;;;;;;;;;;;;;;;23.79;39.15;102051.44;2190714;39;114903;-53
2021/06/15 07:28:42;;;;;;;;;;;;;;;23.79;39.54;102052.28;2199389;39;115199;-53
2021/06/15 07:30:14;;;;;;;;;;;;;;;23.90;39.62;102056.63;2201354;39;115186;-53
2021/06/15 07:31:46;;;;;;;;;;;;;;;23.88;39.40;102060.91;2207347;39;114934;-53
2021/06/15 07:33:18;;;;;;;;;;;;;;;23.81;39.12;102055.63;2197394;39;116266;-52
2021/06/15 07:34:49;;;;;;;;;;;;;;;23.78;39.19;102049.75;2203653;39;114260;-53
2021/06/15 07:36:21;;;;;;;;;;;;;;;23.78;39.02;102047.78;2196708;39;113785;-55
2021/06/15 07:37:53;;;;;;;;;;;;;;;23.83;39.02;102044.88;2195836;39;115581;-53
2021/06/15 07:39:25;;;;;;;;;;;;;;;23.86;39.84;102051.91;2202276;39;114432;-54
2021/06/15 07:40:57;;;;;;;;;;;;;;;23.80;39.57;102048.28;2204153;39;114411;-53
2021/06/15 07:42:29;;;;;;;;;;;;;;;23.78;39.19;102058.22;2204757;39;113992;-53
2021/06/15 07:44:02;;;;;;;;;;;;;;;23.74;39.36;102052.34;2208131;39;113814;-53
2021/06/15 07:45:36;;;;;;;;;;;;;;;23.74;39.67;102063.66;2199668;39;115722;-53
2021/06/15 07:47:08;;;;;;;;;;;;;;;23.73;39.41;102058.28;2203736;39;116744;-53
2021/06/15 07:48:40;;;;;;;;;;;;;;;23.66;39.22;102050.22;2200206;39;115723;-53
2021/06/15 07:50:12;;;;;;;;;;;;;;;23.66;39.48;102058.69;2205216;39;116049;-53
2021/06/15 07:51:44;;;;;;;;;;;;;;;23.62;39.63;102059.59;2203855;39;114914;-52
2021/06/15 07:53:35;;;;;;;;;;;;;;;23.69;39.84;102057.22;2204986;39;114875;-52
2021/06/15 07:55:07;;;;;;;;;;;;;;;23.64;39.84;102062.94;2207033;39;116241;-55
2021/06/15 07:56:43;;;;;;;;;;;;;;;23.61;40.69;102055.94;2205594;39;114547;-54